This is the latest recevied weather packets stored in our database for station/object EA3FHP. If no packets are shown the sender has not sent any weather packets the latest 10 day(s).
| Time | Temp. | Humidity | Pressure | Rain* | Wind** | Luminosity | Snow |
|---|---|---|---|---|---|---|---|
| 1787649003 | 24.44° C | 63% | 1015.9 hPa | 0 mm | - | - | - |
| 1787648403 | 24.44° C | 65% | 1015.6 hPa | 0 mm | - | - | - |
| 1787647803 | 23.89° C | 65% | 1015.7 hPa | 0 mm | - | - | - |
| 1787647203 | 23.89° C | 63% | 1015.7 hPa | 0 mm | - | - | - |
| 1787646603 | 22.78° C | 67% | 1015.6 hPa | 0 mm | - | - | - |
| 1787646003 | 22.22° C | 73% | 1015.7 hPa | 0 mm | - | - | - |
| 1787645403 | 21.11° C | 74% | 1015.6 hPa | 0 mm | - | - | - |
| 1787644803 | 19.44° C | 79% | 1015.6 hPa | 0 mm | - | - | - |
| 1787644203 | 18.89° C | 79% | 1015.6 hPa | 0 mm | - | - | - |
| 1787643603 | 17.78° C | 83% | 1015.6 hPa | 0 mm | - | - | - |
| 1787643003 | 17.78° C | 84% | 1015.6 hPa | 0 mm | - | - | - |
| 1787642403 | 17.22° C | 85% | 1015.8 hPa | 0 mm | - | - | - |
| 1787641803 | 17.22° C | 86% | 1015.6 hPa | 0 mm | - | - | - |
| 1787641203 | 16.67° C | 89% | 1015.5 hPa | 0 mm | - | - | - |
| 1787640603 | 16.67° C | 90% | 1015.5 hPa | 0 mm | - | - | - |
| 1787640003 | 16.11° C | 91% | 1015.5 hPa | 0 mm | - | - | - |
| 1787639403 | 16.11° C | 91% | 1015.5 hPa | 0 mm | - | - | - |
| 1787637003 | 15.56° C | 91% | 1015.2 hPa | 0 mm | - | - | - |
| 1787636403 | 15° C | 91% | 1015.3 hPa | 0 mm | - | - | - |
| 1787635819 | 15° C | 91% | 1015 hPa | 0 mm | - | - | - |
| 1787635203 | 15° C | 90% | 1014.8 hPa | 0 mm | - | - | - |
| 1787607007 | 18.33° C | 81% | 1015.2 hPa | 0 mm | - | - | - |
| 1787606403 | 18.33° C | 80% | 1014.8 hPa | 0 mm | - | - | - |
| 1787605804 | 18.33° C | 79% | 1014.8 hPa | 0 mm | - | - | - |
| 1787605204 | 18.33° C | 80% | 1015 hPa | 0 mm | - | - | - |
* Rain latest hour (hover to see other rain measurements)
** Current wind speed in m/s (hover to see current wind gust speed)